createdAt,value
2023-02-01T00:00:16.475Z,2.28
2023-02-01T00:03:43.404Z,2.72
2023-02-01T00:06:49.267Z,2.70
2023-02-01T00:10:01.847Z,2.75
2023-02-01T00:13:07.548Z,3.08
2023-02-01T00:16:14.169Z,1.75
2023-02-01T00:19:21.750Z,3.13
2023-02-01T00:22:27.863Z,3.17
2023-02-01T00:25:36.122Z,3.30
2023-02-01T00:28:41.642Z,3.03
2023-02-01T00:31:49.396Z,3.28
2023-02-01T00:34:55.236Z,3.45
2023-02-01T00:38:01.555Z,3.53
2023-02-01T00:41:11.424Z,1.98
2023-02-01T00:44:17.924Z,3.78
2023-02-01T00:47:24.755Z,2.80
2023-02-01T00:50:30.392Z,3.25
2023-02-01T00:53:36.886Z,2.15
2023-02-01T00:56:44.534Z,3.92
2023-02-01T00:59:52.101Z,3.28
2023-02-01T01:02:59.065Z,1.75
2023-02-01T01:06:10.541Z,2.92
2023-02-01T01:09:19.386Z,4.00
2023-02-01T01:12:28.123Z,2.78
2023-02-01T01:15:33.342Z,2.92
2023-02-01T01:18:38.933Z,2.30
2023-02-01T01:21:49.301Z,2.72
2023-02-01T01:24:54.995Z,2.08
2023-02-01T01:28:06.009Z,3.13
2023-02-01T01:31:15.408Z,2.30
2023-02-01T01:34:20.700Z,2.58
2023-02-01T01:37:29.080Z,3.65
2023-02-01T01:40:35.221Z,2.35
2023-02-01T01:43:58.063Z,2.35
2023-02-01T01:47:03.574Z,2.67
2023-02-01T01:50:11.120Z,2.88
2023-02-01T01:53:18.624Z,2.63
2023-02-01T01:56:24.463Z,2.63
2023-02-01T01:59:33.168Z,2.05
2023-02-01T02:02:39.105Z,2.47
2023-02-01T02:05:46.188Z,2.95
2023-02-01T02:08:53.783Z,2.33
2023-02-01T02:11:59.061Z,2.25
2023-02-01T02:15:09.131Z,3.03
2023-02-01T02:18:19.850Z,2.78
2023-02-01T02:21:34.984Z,2.40
2023-02-01T02:24:58.523Z,2.58
2023-02-01T02:28:09.658Z,2.15
2023-02-01T02:31:24.717Z,3.10
2023-02-01T02:34:35.463Z,2.13
2023-02-01T02:37:42.795Z,2.05
2023-02-01T02:40:51.069Z,2.17
2023-02-01T02:44:12.321Z,3.13
2023-02-01T02:47:29.465Z,2.90
2023-02-01T02:50:51.717Z,3.22
2023-02-01T02:54:13.034Z,3.45
2023-02-01T02:57:31.971Z,2.45
2023-02-01T03:00:50.428Z,3.38
2023-02-01T03:04:18.612Z,4.15
2023-02-01T03:07:38.880Z,3.15
2023-02-01T03:10:52.929Z,2.30
2023-02-01T03:13:58.600Z,4.43
2023-02-01T03:17:06.155Z,2.42
2023-02-01T03:20:14.660Z,1.90
2023-02-01T03:23:21.828Z,2.65
2023-02-01T03:26:31.413Z,2.75
2023-02-01T03:29:39.901Z,2.70
2023-02-01T03:33:00.467Z,2.75
2023-02-01T03:36:11.165Z,3.78
2023-02-01T03:39:21.881Z,1.75
2023-02-01T03:42:32.793Z,2.20
2023-02-01T03:45:44.139Z,3.05
2023-02-01T03:48:49.397Z,2.88
2023-02-01T03:51:55.687Z,1.95
2023-02-01T03:55:03.128Z,1.88
2023-02-01T03:58:13.942Z,2.08
2023-02-01T04:01:24.031Z,2.60
2023-02-01T04:04:30.752Z,2.83
2023-02-01T04:07:37.323Z,2.30
2023-02-01T04:10:43.323Z,2.40
2023-02-01T04:13:51.393Z,3.22
2023-02-01T04:16:57.387Z,1.80
2023-02-01T04:20:02.435Z,2.33
2023-02-01T04:23:08.275Z,1.67
2023-02-01T04:26:13.699Z,1.67
2023-02-01T04:29:22.389Z,3.28
2023-02-01T04:32:27.484Z,2.30
2023-02-01T04:35:33.561Z,2.55
2023-02-01T04:38:39.063Z,2.00
2023-02-01T04:41:44.851Z,2.90
2023-02-01T04:44:53.349Z,1.70
2023-02-01T04:48:00.477Z,1.75
2023-02-01T04:51:06.099Z,2.95
2023-02-01T04:54:15.613Z,3.50
2023-02-01T04:57:23.856Z,1.42
2023-02-01T05:00:33.015Z,1.95
2023-02-01T05:03:38.311Z,2.08
2023-02-01T05:06:47.061Z,2.92
2023-02-01T05:09:52.353Z,1.90
2023-02-01T05:13:10.014Z,1.48
2023-02-01T05:16:18.136Z,2.63
2023-02-01T05:19:26.103Z,2.20
2023-02-01T05:22:31.443Z,2.25
2023-02-01T05:25:39.800Z,1.48
2023-02-01T05:28:45.216Z,2.38
2023-02-01T05:31:53.976Z,1.10
2023-02-01T05:35:00.404Z,2.13
2023-02-01T05:38:05.714Z,2.33
2023-02-01T05:41:10.752Z,2.17
2023-02-01T05:44:19.916Z,1.83
2023-02-01T05:47:28.537Z,2.65
2023-02-01T05:50:33.904Z,2.65
2023-02-01T05:53:39.139Z,2.20
2023-02-01T05:56:45.211Z,2.60
2023-02-01T05:59:56.443Z,2.08
2023-02-01T06:03:05.226Z,2.60
2023-02-01T06:06:10.313Z,2.40
2023-02-01T06:09:15.620Z,2.28
2023-02-01T06:12:24.067Z,3.72
2023-02-01T06:15:32.379Z,2.58
2023-02-01T06:18:42.618Z,1.95
2023-02-01T06:21:48.793Z,2.80
2023-02-01T06:24:54.400Z,2.38
2023-02-01T06:28:00.416Z,1.92
2023-02-01T06:31:07.939Z,2.00
2023-02-01T06:34:17.518Z,1.27
2023-02-01T06:37:24.251Z,2.53
2023-02-01T06:40:34.473Z,1.75
2023-02-01T06:43:41.469Z,2.20
2023-02-01T06:46:49.041Z,2.85
2023-02-01T06:49:57.244Z,2.53
2023-02-01T06:53:03.213Z,1.63
2023-02-01T06:56:08.920Z,1.70
2023-02-01T06:59:16.551Z,2.13
2023-02-01T07:02:22.614Z,2.20
2023-02-01T07:05:31.094Z,1.92
2023-02-01T07:08:36.906Z,1.73
2023-02-01T07:11:44.420Z,2.30
2023-02-01T07:14:49.742Z,2.35
2023-02-01T07:17:56.065Z,1.73
2023-02-01T07:21:06.107Z,1.95
2023-02-01T07:24:11.523Z,1.35
2023-02-01T07:27:16.695Z,2.13
2023-02-01T07:30:24.108Z,1.42
2023-02-01T07:33:31.577Z,1.70
2023-02-01T07:36:43.342Z,2.42
2023-02-01T07:39:48.808Z,1.20
2023-02-01T07:42:57.815Z,1.90
2023-02-01T07:46:03.544Z,2.35
2023-02-01T07:49:10.173Z,1.95
2023-02-01T07:52:20.162Z,1.77
2023-02-01T07:55:25.986Z,2.40
2023-02-01T07:58:34.661Z,2.92
2023-02-01T08:01:42.426Z,2.42
2023-02-01T08:04:49.779Z,2.40
2023-02-01T08:07:59.020Z,1.95
2023-02-01T08:11:05.506Z,3.03
2023-02-01T08:14:11.269Z,2.63
2023-02-01T08:17:16.112Z,2.70
2023-02-01T08:20:23.403Z,2.25
2023-02-01T08:23:31.484Z,3.30
2023-02-01T08:26:37.246Z,3.03
2023-02-01T08:29:42.294Z,2.80
2023-02-01T08:32:51.400Z,2.55
2023-02-01T08:35:56.514Z,1.92
2023-02-01T08:39:10.117Z,2.28
2023-02-01T08:42:27.680Z,3.17
2023-02-01T08:45:33.984Z,2.33
2023-02-01T08:48:39.942Z,3.00
2023-02-01T08:51:47.485Z,2.60
2023-02-01T08:54:55.584Z,2.90
2023-02-01T08:58:02.158Z,2.78
2023-02-01T09:01:07.666Z,2.08
2023-02-01T09:04:13.489Z,3.92
2023-02-01T09:07:20.056Z,2.22
2023-02-01T09:10:35.012Z,2.15
2023-02-01T09:13:43.116Z,2.40
2023-02-01T09:16:53.889Z,2.58
2023-02-01T09:20:01.536Z,2.17
2023-02-01T09:23:08.547Z,2.75
2023-02-01T09:26:19.793Z,2.75
2023-02-01T09:29:30.736Z,2.47
2023-02-01T09:32:36.313Z,2.05
2023-02-01T09:35:43.637Z,2.33
2023-02-01T09:38:53.332Z,2.50
2023-02-01T09:42:06.472Z,2.35
2023-02-01T09:45:21.836Z,1.77
2023-02-01T09:48:30.955Z,2.45
2023-02-01T09:51:38.843Z,2.47
2023-02-01T09:54:46.943Z,2.53
2023-02-01T09:57:58.364Z,1.45
2023-02-01T10:01:15.283Z,0.80
2023-02-01T10:04:21.614Z,1.67
2023-02-01T10:07:31.836Z,2.70
2023-02-01T10:10:39.730Z,1.58
2023-02-01T10:13:52.799Z,3.38
2023-02-01T10:17:02.207Z,1.30
2023-02-01T10:20:15.740Z,1.38
2023-02-01T10:23:34.366Z,1.42
2023-02-01T10:26:45.908Z,1.73
2023-02-01T10:29:56.456Z,0.80
2023-02-01T10:33:05.774Z,1.13
2023-02-01T10:36:18.467Z,1.30
2023-02-01T10:39:28.798Z,1.15
2023-02-01T10:42:36.276Z,1.40
2023-02-01T10:45:45.293Z,1.08
2023-02-01T10:48:55.662Z,1.52
2023-02-01T10:52:07.285Z,1.00
2023-02-01T10:55:27.843Z,1.75
2023-02-01T10:58:37.646Z,1.55
2023-02-01T11:01:46.629Z,1.85
2023-02-01T11:04:52.538Z,2.85
2023-02-01T11:08:01.393Z,1.35
2023-02-01T11:11:07.849Z,1.38
2023-02-01T11:14:17.792Z,0.95
2023-02-01T11:17:32.346Z,1.10
2023-02-01T11:20:42.301Z,1.27
2023-02-01T11:23:48.705Z,0.98
2023-02-01T11:27:00.159Z,0.70
2023-02-01T11:30:07.095Z,1.50
2023-02-01T11:33:17.638Z,1.88
2023-02-01T11:36:28.820Z,1.05
2023-02-01T11:39:36.120Z,1.33
2023-02-01T11:42:56.946Z,0.90
2023-02-01T11:46:03.660Z,0.80
2023-02-01T11:49:24.253Z,0.90
2023-02-01T11:52:37.285Z,1.67
2023-02-01T11:55:46.994Z,0.95
2023-02-01T11:59:01.834Z,0.57
2023-02-01T12:02:17.282Z,1.10
2023-02-01T12:05:29.157Z,1.00
2023-02-01T12:08:46.923Z,1.00
2023-02-01T12:12:00.709Z,0.70
2023-02-01T12:15:20.289Z,1.40
2023-02-01T12:18:37.963Z,1.42
2023-02-01T12:21:53.299Z,1.25
2023-02-01T12:25:18.851Z,0.75
2023-02-01T12:28:41.467Z,0.80
2023-02-01T12:31:50.354Z,1.10
2023-02-01T12:35:10.624Z,0.80
2023-02-01T12:38:27.782Z,0.80
2023-02-01T12:41:44.288Z,1.27
2023-02-01T12:44:57.623Z,0.88
2023-02-01T12:48:05.433Z,1.02
2023-02-01T12:51:12.475Z,1.20
2023-02-01T12:54:24.288Z,1.15
2023-02-01T12:57:31.660Z,0.90
2023-02-01T13:00:41.950Z,1.10
2023-02-01T13:04:08.859Z,1.15
2023-02-01T13:07:17.923Z,1.17
2023-02-01T13:10:39.014Z,0.90
2023-02-01T13:13:50.590Z,1.48
2023-02-01T13:16:58.666Z,1.30
2023-02-01T13:20:09.328Z,1.00
2023-02-01T13:23:30.198Z,1.65
2023-02-01T13:26:47.218Z,1.20
2023-02-01T13:29:55.667Z,1.38
2023-02-01T13:33:53.975Z,1.52
2023-02-01T13:36:50.537Z,2.38
2023-02-01T13:40:21.549Z,1.42
2023-02-01T13:43:33.994Z,1.63
2023-02-01T13:46:45.353Z,1.20
2023-02-01T13:49:52.614Z,2.17
2023-02-01T13:52:59.012Z,1.45
2023-02-01T13:56:07.417Z,1.10
2023-02-01T13:59:36.260Z,1.10
2023-02-01T14:03:05.923Z,1.27
2023-02-01T14:06:20.748Z,0.85
2023-02-01T14:09:47.382Z,1.25
2023-02-01T14:12:53.713Z,0.90
2023-02-01T14:16:13.990Z,1.60
2023-02-01T14:19:26.504Z,1.00
2023-02-01T14:22:37.265Z,0.88
2023-02-01T14:25:45.652Z,1.30
2023-02-01T14:28:56.368Z,1.65
2023-02-01T14:32:07.287Z,1.23
2023-02-01T14:35:28.177Z,1.02
2023-02-01T14:38:35.148Z,0.80
2023-02-01T14:41:44.651Z,1.45
2023-02-01T14:44:59.216Z,1.40
2023-02-01T14:48:24.012Z,1.70
2023-02-01T14:51:35.783Z,1.00
2023-02-01T14:54:46.961Z,1.02
2023-02-01T14:58:02.684Z,1.10
2023-02-01T15:01:10.498Z,1.00
2023-02-01T15:04:18.401Z,1.15
2023-02-01T15:07:29.468Z,1.48
2023-02-01T15:10:47.283Z,1.88
2023-02-01T15:13:55.664Z,1.75
2023-02-01T15:17:01.716Z,1.55
2023-02-01T15:20:18.955Z,1.80
2023-02-01T15:23:29.261Z,2.30
2023-02-01T15:26:39.124Z,1.70
2023-02-01T15:29:44.547Z,2.35
2023-02-01T15:32:51.045Z,1.42
2023-02-01T15:36:01.467Z,1.20
2023-02-01T15:39:35.858Z,2.25
2023-02-01T15:42:54.569Z,2.60
2023-02-01T15:46:07.102Z,1.55
2023-02-01T15:49:21.487Z,1.50
2023-02-01T15:52:29.284Z,1.00
2023-02-01T15:55:46.957Z,1.23
2023-02-01T15:58:58.679Z,1.08
2023-02-01T16:02:06.087Z,1.98
2023-02-01T16:05:30.993Z,1.70
2023-02-01T16:08:38.760Z,1.23
2023-02-01T16:11:45.601Z,2.10
2023-02-01T16:14:54.892Z,1.60
2023-02-01T16:18:00.471Z,1.50
2023-02-01T16:21:10.668Z,1.55
2023-02-01T16:24:17.061Z,1.50
2023-02-01T16:27:26.970Z,1.63
2023-02-01T16:30:36.458Z,1.42
2023-02-01T16:33:44.009Z,1.98
2023-02-01T16:36:55.583Z,2.20
2023-02-01T16:40:03.813Z,1.70
2023-02-01T16:43:15.902Z,2.47
2023-02-01T16:50:17.175Z,1.30
2023-02-01T16:53:31.778Z,1.45
2023-02-01T16:56:43.890Z,1.75
2023-02-01T16:59:53.309Z,1.15
2023-02-01T17:03:00.003Z,1.15
2023-02-01T17:06:10.078Z,1.40
2023-02-01T17:09:16.152Z,1.20
2023-02-01T17:12:27.050Z,1.40
2023-02-01T17:15:39.459Z,1.20
2023-02-01T17:18:46.468Z,1.50
2023-02-01T17:25:40.336Z,1.55
2023-02-01T17:28:45.923Z,1.40
2023-02-01T17:31:56.462Z,1.80
2023-02-01T17:35:03.953Z,1.33
2023-02-01T17:38:13.709Z,0.93
2023-02-01T17:41:20.188Z,1.20
2023-02-01T17:44:25.869Z,1.00
2023-02-01T17:47:30.939Z,1.05
2023-02-01T17:50:41.105Z,1.00
2023-02-01T17:53:50.535Z,1.15
2023-02-01T17:56:56.804Z,2.42
2023-02-01T18:00:01.790Z,1.60
2023-02-01T18:03:07.098Z,0.95
2023-02-01T18:06:16.420Z,0.90
2023-02-01T18:09:26.468Z,1.75
2023-02-01T18:12:31.688Z,1.58
2023-02-01T18:15:37.659Z,1.35
2023-02-01T18:18:42.803Z,0.82
2023-02-01T18:21:48.909Z,1.05
2023-02-01T18:24:58.033Z,0.90
2023-02-01T18:28:04.532Z,0.90
2023-02-01T18:31:13.833Z,1.10
2023-02-01T18:34:22.684Z,1.30
2023-02-01T18:37:27.960Z,1.67
2023-02-01T18:40:39.921Z,1.55
2023-02-01T18:43:45.199Z,1.20
2023-02-01T18:46:50.799Z,1.65
2023-02-01T18:49:56.016Z,1.60
2023-02-01T18:53:02.330Z,1.77
2023-02-01T18:56:10.657Z,2.08
2023-02-01T18:59:17.618Z,1.92
2023-02-01T19:02:23.466Z,1.90
2023-02-01T19:05:30.910Z,1.73
2023-02-01T19:08:35.846Z,1.40
2023-02-01T19:11:47.439Z,1.65
2023-02-01T19:14:52.919Z,1.52
2023-02-01T19:17:58.954Z,1.98
2023-02-01T19:21:06.131Z,1.75
2023-02-01T19:24:13.002Z,1.48
2023-02-01T19:27:21.426Z,2.05
2023-02-01T19:30:28.778Z,3.17
2023-02-01T19:33:33.672Z,2.10
2023-02-01T19:36:42.618Z,2.20
2023-02-01T19:39:49.422Z,1.98
2023-02-01T19:42:57.621Z,1.13
2023-02-01T19:46:03.361Z,1.17
2023-02-01T19:49:12.326Z,2.15
2023-02-01T19:52:17.780Z,2.15
2023-02-01T19:55:23.361Z,1.45
2023-02-01T19:58:31.176Z,1.58
2023-02-01T20:01:37.767Z,1.60
2023-02-01T20:04:43.754Z,1.92
2023-02-01T20:07:49.135Z,2.38
2023-02-01T20:10:54.737Z,1.80
2023-02-01T20:14:07.895Z,2.10
2023-02-01T20:17:23.434Z,2.33
2023-02-01T20:20:29.443Z,2.45
2023-02-01T20:23:40.098Z,2.60
2023-02-01T20:26:49.416Z,1.65
2023-02-01T20:30:00.433Z,2.50
2023-02-01T20:33:17.988Z,2.67
2023-02-01T20:36:31.526Z,1.95
2023-02-01T20:39:40.767Z,2.88
2023-02-01T20:42:48.106Z,2.17
2023-02-01T20:45:57.736Z,1.85
2023-02-01T20:49:06.456Z,1.85
2023-02-01T20:52:12.211Z,2.78
2023-02-01T20:55:17.172Z,1.85
2023-02-01T20:58:23.119Z,2.97
2023-02-01T21:01:30.985Z,3.72
2023-02-01T21:04:53.978Z,3.22
2023-02-01T21:08:01.810Z,2.35
2023-02-01T21:11:09.510Z,2.90
2023-02-01T21:14:15.027Z,2.67
2023-02-01T21:17:30.927Z,2.38
2023-02-01T21:27:49.499Z,2.57
2023-02-01T21:30:58.894Z,2.33
2023-02-01T21:34:21.521Z,2.40
2023-02-01T21:37:28.959Z,2.15
2023-02-01T21:41:00.591Z,2.80
2023-02-01T21:44:31.586Z,2.10
2023-02-01T21:51:43.164Z,2.35
2023-02-01T21:54:59.676Z,2.88
2023-02-01T21:58:13.279Z,2.42
2023-02-01T22:01:36.422Z,2.38
2023-02-01T22:04:44.194Z,2.50
2023-02-01T22:07:54.242Z,2.38
2023-02-01T22:11:08.234Z,2.33
2023-02-01T22:14:16.715Z,2.70
2023-02-01T22:17:24.762Z,2.40
2023-02-01T22:20:34.847Z,2.72
2023-02-01T22:23:46.819Z,2.92
2023-02-01T22:26:55.256Z,3.42
2023-02-01T22:30:00.858Z,3.28
2023-02-01T22:33:13.702Z,3.00
2023-02-01T22:36:21.805Z,2.00
2023-02-01T22:39:38.313Z,2.05
2023-02-01T22:42:47.367Z,2.40
2023-02-01T22:45:56.213Z,2.70
2023-02-01T22:49:06.941Z,2.42
2023-02-01T22:52:17.782Z,2.13
2023-02-01T22:55:26.157Z,2.70
2023-02-01T22:58:36.125Z,2.83
2023-02-01T23:01:41.512Z,2.38
2023-02-01T23:04:48.463Z,3.00
2023-02-01T23:07:59.516Z,2.47
2023-02-01T23:11:14.033Z,2.80
2023-02-01T23:14:23.370Z,2.58
2023-02-01T23:17:29.910Z,2.45
2023-02-01T23:20:36.490Z,3.13
2023-02-01T23:23:44.526Z,2.33
2023-02-01T23:26:52.434Z,3.25
2023-02-01T23:30:01.943Z,2.33
2023-02-01T23:33:07.570Z,2.53
2023-02-01T23:36:16.297Z,2.50
2023-02-01T23:39:22.459Z,2.53
2023-02-01T23:42:33.982Z,2.35
2023-02-01T23:45:42.999Z,2.33
2023-02-01T23:52:19.297Z,1.33
2023-02-01T23:55:32.914Z,2.33
2023-02-01T23:58:55.383Z,2.33
